createdAt,value
2019-05-26T00:00:53.538Z,13.43
2019-05-26T00:03:22.813Z,14.57
2019-05-26T00:05:52.089Z,15.30
2019-05-26T00:08:21.385Z,16.00
2019-05-26T00:10:50.670Z,16.00
2019-05-26T00:13:19.926Z,16.47
2019-05-26T00:15:49.298Z,16.63
2019-05-26T00:18:18.622Z,16.90
2019-05-26T00:20:47.882Z,15.97
2019-05-26T00:23:17.159Z,15.63
2019-05-26T00:25:46.422Z,15.97
2019-05-26T00:28:15.717Z,16.67
2019-05-26T00:30:44.921Z,16.30
2019-05-26T00:33:14.197Z,15.63
2019-05-26T00:35:43.497Z,15.10
2019-05-26T00:38:12.787Z,15.63
2019-05-26T00:40:42.033Z,16.53
2019-05-26T00:43:11.437Z,15.80
2019-05-26T00:45:40.807Z,15.37
2019-05-26T00:48:10.130Z,15.23
2019-05-26T00:50:39.436Z,15.93
2019-05-26T00:53:09.026Z,15.93
2019-05-26T00:55:38.670Z,17.10
2019-05-26T00:58:08.030Z,16.17
2019-05-26T01:00:41.541Z,16.07
2019-05-26T01:03:11.730Z,16.73
2019-05-26T01:05:41.030Z,16.27
2019-05-26T01:08:10.390Z,16.13
2019-05-26T01:10:39.834Z,16.03
2019-05-26T01:13:09.108Z,14.70
2019-05-26T01:15:38.381Z,15.73
2019-05-26T01:18:07.734Z,17.20
2019-05-26T01:20:37.017Z,16.00
2019-05-26T01:23:06.294Z,16.93
2019-05-26T01:25:35.642Z,15.07
2019-05-26T01:28:05.089Z,15.47
2019-05-26T01:30:36.201Z,15.33
2019-05-26T01:33:06.712Z,14.60
2019-05-26T01:35:39.308Z,15.17
2019-05-26T01:38:22.423Z,14.43
2019-05-26T01:40:42.369Z,14.30
2019-05-26T01:43:11.714Z,14.90
2019-05-26T01:45:41.065Z,15.10
2019-05-26T01:48:10.359Z,15.37
2019-05-26T01:50:39.645Z,14.10
2019-05-26T01:53:08.901Z,14.43
2019-05-26T01:55:38.181Z,14.57
2019-05-26T01:58:07.782Z,15.17
2019-05-26T02:00:37.066Z,15.50
2019-05-26T02:03:06.381Z,14.77
2019-05-26T02:05:35.795Z,14.90
2019-05-26T02:08:05.375Z,15.10
2019-05-26T02:10:34.773Z,15.10
2019-05-26T02:13:04.189Z,15.43
2019-05-26T02:15:33.657Z,15.97
2019-05-26T02:18:02.931Z,16.90
2019-05-26T02:20:32.215Z,16.73
2019-05-26T02:23:01.476Z,16.63
2019-05-26T02:25:30.731Z,16.50
2019-05-26T02:28:00.046Z,15.90
2019-05-26T02:30:29.358Z,17.50
2019-05-26T02:32:58.704Z,16.67
2019-05-26T02:35:28.012Z,15.97
2019-05-26T02:37:57.502Z,17.70
2019-05-26T02:40:26.770Z,16.97
2019-05-26T02:42:56.139Z,15.87
2019-05-26T02:45:25.633Z,16.53
2019-05-26T02:47:54.962Z,15.50
2019-05-26T02:50:24.558Z,16.63
2019-05-26T02:52:53.866Z,16.53
2019-05-26T02:55:24.552Z,17.10
2019-05-26T02:57:53.906Z,17.20
2019-05-26T03:00:37.527Z,17.13
2019-05-26T03:03:07.494Z,18.77
2019-05-26T03:05:37.181Z,18.00
2019-05-26T03:08:08.273Z,17.60
2019-05-26T03:10:38.539Z,16.80
2019-05-26T03:13:08.229Z,15.53
2019-05-26T03:15:37.504Z,17.60
2019-05-26T03:18:07.321Z,16.80
2019-05-26T03:20:40.959Z,18.50
2019-05-26T03:23:10.546Z,17.43
2019-05-26T03:25:40.151Z,18.00
2019-05-26T03:28:09.714Z,18.40
2019-05-26T03:30:39.086Z,17.47
2019-05-26T03:33:08.508Z,15.90
2019-05-26T03:35:37.908Z,17.37
2019-05-26T03:38:07.178Z,17.63
2019-05-26T03:40:36.522Z,17.13
2019-05-26T03:43:05.831Z,16.60
2019-05-26T03:46:15.552Z,16.80
2019-05-26T03:48:45.227Z,14.87
2019-05-26T03:51:15.158Z,15.20
2019-05-26T03:53:44.597Z,14.53
2019-05-26T03:56:14.076Z,14.63
2019-05-26T03:58:43.349Z,14.80
2019-05-26T04:01:12.646Z,14.80
2019-05-26T04:03:42.001Z,14.73
2019-05-26T04:06:11.355Z,14.50
2019-05-26T04:08:40.626Z,14.33
2019-05-26T04:11:09.902Z,14.10
2019-05-26T04:13:39.249Z,12.97
2019-05-26T04:16:08.629Z,13.37
2019-05-26T04:18:38.008Z,14.87
2019-05-26T04:21:07.283Z,12.93
2019-05-26T04:23:36.619Z,14.10
2019-05-26T04:26:05.927Z,12.97
2019-05-26T04:28:35.259Z,12.00
2019-05-26T04:31:04.533Z,13.17
2019-05-26T04:33:33.926Z,13.17
2019-05-26T04:36:03.326Z,13.63
2019-05-26T04:38:32.704Z,12.07
2019-05-26T04:41:02.037Z,11.87
2019-05-26T04:43:31.305Z,12.60
2019-05-26T04:46:00.587Z,11.97
2019-05-26T04:48:29.915Z,12.50
2019-05-26T04:50:59.236Z,11.93
2019-05-26T04:53:28.566Z,11.60
2019-05-26T04:55:57.849Z,11.10
2019-05-26T04:58:27.233Z,11.27
2019-05-26T05:00:56.498Z,9.70
2019-05-26T05:03:25.845Z,12.53
2019-05-26T05:05:55.162Z,10.97
2019-05-26T05:08:24.447Z,11.80
2019-05-26T05:10:53.795Z,10.73
2019-05-26T05:13:25.070Z,11.77
2019-05-26T05:15:54.087Z,11.47
2019-05-26T05:18:23.371Z,11.33
2019-05-26T05:20:52.617Z,10.83
2019-05-26T05:23:21.884Z,11.73
2019-05-26T05:25:51.218Z,10.77
2019-05-26T05:28:20.530Z,10.47
2019-05-26T05:30:49.802Z,11.23
2019-05-26T05:33:19.151Z,10.07
2019-05-26T05:35:48.417Z,11.13
2019-05-26T05:38:17.689Z,10.73
2019-05-26T05:40:59.144Z,10.77
2019-05-26T05:43:18.107Z,11.17
2019-05-26T05:45:47.430Z,11.10
2019-05-26T05:48:16.749Z,10.87
2019-05-26T05:50:46.031Z,10.87
2019-05-26T05:53:15.282Z,9.77
2019-05-26T05:55:44.549Z,9.67
2019-05-26T05:58:13.835Z,10.40
2019-05-26T06:00:43.129Z,9.47
2019-05-26T06:03:12.458Z,10.83
2019-05-26T06:05:41.709Z,11.17
2019-05-26T06:08:10.984Z,10.30
2019-05-26T06:10:40.257Z,10.20
2019-05-26T06:13:09.530Z,10.30
2019-05-26T06:15:38.825Z,10.00
2019-05-26T06:18:08.089Z,10.83
2019-05-26T06:20:37.388Z,11.87
2019-05-26T06:23:06.751Z,10.20
2019-05-26T06:25:36.010Z,9.80
2019-05-26T06:28:05.517Z,10.80
2019-05-26T06:30:34.836Z,10.10
2019-05-26T06:33:04.214Z,10.67
2019-05-26T06:35:33.488Z,9.67
2019-05-26T06:38:02.757Z,9.50
2019-05-26T06:40:32.037Z,9.50
2019-05-26T06:43:01.310Z,9.83
2019-05-26T06:45:30.660Z,12.33
2019-05-26T06:47:59.995Z,13.20
2019-05-26T06:50:29.249Z,13.53
2019-05-26T06:52:58.594Z,13.27
2019-05-26T06:55:27.853Z,13.90
2019-05-26T06:57:57.198Z,15.00
2019-05-26T07:00:26.466Z,12.97
2019-05-26T07:02:55.737Z,11.87
2019-05-26T07:05:25.070Z,11.23
2019-05-26T07:07:54.377Z,10.63
2019-05-26T07:10:23.641Z,10.17
2019-05-26T07:12:52.935Z,9.20
2019-05-26T07:15:22.221Z,10.70
2019-05-26T07:17:51.474Z,10.60
2019-05-26T07:20:21.150Z,10.20
2019-05-26T07:22:50.508Z,10.57
2019-05-26T07:25:19.777Z,10.77
2019-05-26T07:27:48.993Z,11.03
2019-05-26T07:30:18.718Z,10.23
2019-05-26T07:32:48.138Z,10.23
2019-05-26T07:35:17.478Z,9.97
2019-05-26T07:37:46.779Z,8.40
2019-05-26T07:40:17.751Z,7.27
2019-05-26T07:42:47.037Z,6.03
2019-05-26T07:45:16.533Z,6.13
2019-05-26T07:47:45.787Z,5.27
2019-05-26T07:50:15.298Z,4.73
2019-05-26T07:52:44.587Z,4.27
2019-05-26T07:55:14.230Z,4.03
2019-05-26T07:57:43.575Z,4.30
2019-05-26T08:00:13.028Z,4.40
2019-05-26T08:02:42.361Z,4.12
2019-05-26T08:05:11.826Z,4.75
2019-05-26T08:07:41.178Z,4.50
2019-05-26T08:10:10.676Z,5.15
2019-05-26T08:12:39.958Z,5.25
2019-05-26T08:15:09.633Z,5.00
2019-05-26T08:17:38.910Z,5.20
2019-05-26T08:20:08.688Z,4.83
2019-05-26T08:22:38.033Z,4.45
2019-05-26T08:25:07.655Z,4.55
2019-05-26T08:27:36.906Z,4.85
2019-05-26T08:30:06.637Z,4.67
2019-05-26T08:32:35.998Z,5.00
2019-05-26T08:35:05.737Z,4.60
2019-05-26T08:37:34.997Z,4.62
2019-05-26T08:40:19.608Z,4.42
2019-05-26T08:42:52.679Z,3.90
2019-05-26T08:45:23.104Z,3.85
2019-05-26T08:47:52.787Z,4.20
2019-05-26T08:50:22.559Z,4.05
2019-05-26T08:52:51.943Z,4.20
2019-05-26T08:55:22.409Z,4.50
2019-05-26T08:57:51.670Z,4.35
2019-05-26T09:00:21.727Z,4.30
2019-05-26T09:02:55.239Z,4.10
2019-05-26T09:05:28.760Z,4.92
2019-05-26T09:08:04.234Z,4.70
2019-05-26T09:10:33.513Z,4.62
2019-05-26T09:13:02.946Z,4.22
2019-05-26T09:15:32.363Z,4.42
2019-05-26T09:18:01.678Z,4.70
2019-05-26T09:20:30.936Z,3.98
2019-05-26T09:23:00.226Z,3.62
2019-05-26T09:25:29.549Z,3.27
2019-05-26T09:27:58.898Z,3.50
2019-05-26T09:30:28.165Z,3.30
2019-05-26T09:32:57.441Z,3.20
2019-05-26T09:35:26.843Z,3.62
2019-05-26T09:37:56.243Z,3.60
2019-05-26T09:40:25.561Z,3.50
2019-05-26T09:42:54.947Z,3.35
2019-05-26T09:45:24.266Z,3.45
2019-05-26T09:47:53.610Z,3.27
2019-05-26T09:50:22.886Z,3.33
2019-05-26T09:52:52.283Z,2.72
2019-05-26T09:55:21.601Z,2.80
2019-05-26T09:57:51.139Z,3.00
2019-05-26T10:00:20.793Z,3.00
2019-05-26T10:02:50.140Z,3.00
2019-05-26T10:05:19.407Z,3.00
2019-05-26T10:07:48.696Z,2.83
2019-05-26T10:10:18.302Z,2.92
2019-05-26T10:12:47.589Z,3.30
2019-05-26T10:15:17.194Z,3.65
2019-05-26T10:17:46.465Z,3.58
2019-05-26T10:20:15.747Z,3.65
2019-05-26T10:22:45.205Z,3.27
2019-05-26T10:25:14.750Z,3.30
2019-05-26T10:27:44.056Z,3.60
2019-05-26T10:30:14.011Z,3.20
2019-05-26T10:32:43.282Z,3.22
2019-05-26T10:35:12.805Z,3.70
2019-05-26T10:37:42.157Z,3.52
2019-05-26T10:40:11.655Z,3.27
2019-05-26T10:42:40.970Z,3.58
2019-05-26T10:45:11.283Z,3.47
2019-05-26T10:47:40.546Z,3.33
2019-05-26T10:50:10.839Z,3.22
2019-05-26T10:52:40.220Z,3.10
2019-05-26T10:55:09.811Z,3.10
2019-05-26T10:57:39.120Z,3.00
2019-05-26T11:00:08.995Z,3.00
2019-05-26T11:02:38.279Z,3.33
2019-05-26T11:05:08.450Z,3.20
2019-05-26T11:07:37.642Z,3.10
2019-05-26T11:10:07.513Z,3.10
2019-05-26T11:12:36.877Z,3.20
2019-05-26T11:15:07.430Z,3.25
2019-05-26T11:17:36.705Z,3.00
2019-05-26T11:20:07.247Z,3.15
2019-05-26T11:22:36.531Z,3.05
2019-05-26T11:25:06.394Z,3.00
2019-05-26T11:27:35.696Z,3.10
2019-05-26T11:30:06.386Z,3.22
2019-05-26T11:32:35.752Z,3.20
2019-05-26T11:35:06.029Z,3.27
2019-05-26T11:37:35.301Z,3.05
2019-05-26T11:40:05.333Z,2.92
2019-05-26T11:42:34.720Z,3.33
2019-05-26T11:45:04.642Z,3.27
2019-05-26T11:47:33.898Z,3.17
2019-05-26T11:50:03.198Z,3.27
2019-05-26T11:52:32.461Z,3.10
2019-05-26T11:55:01.793Z,3.17
2019-05-26T11:57:31.136Z,3.33
2019-05-26T12:00:00.663Z,3.02
2019-05-26T12:02:29.977Z,3.10
2019-05-26T12:04:59.313Z,3.40
2019-05-26T12:07:28.655Z,2.92
2019-05-26T12:09:57.905Z,3.35
2019-05-26T12:12:27.193Z,3.20
2019-05-26T12:14:56.461Z,2.70
2019-05-26T12:17:25.754Z,2.77
2019-05-26T12:19:55.121Z,2.90
2019-05-26T12:22:24.441Z,2.70
2019-05-26T12:24:53.770Z,2.85
2019-05-26T12:27:23.040Z,2.50
2019-05-26T12:29:52.340Z,2.60
2019-05-26T12:32:21.603Z,2.80
2019-05-26T12:34:50.876Z,2.75
2019-05-26T12:37:20.182Z,2.92
2019-05-26T12:39:49.453Z,2.90
2019-05-26T12:42:18.716Z,2.83
2019-05-26T12:44:49.926Z,2.52
2019-05-26T12:47:19.020Z,2.72
2019-05-26T12:49:48.302Z,2.77
2019-05-26T12:52:17.584Z,3.00
2019-05-26T12:54:46.882Z,3.15
2019-05-26T12:57:16.219Z,3.17
2019-05-26T12:59:45.562Z,2.75
2019-05-26T13:02:14.853Z,2.95
2019-05-26T13:04:44.107Z,2.83
2019-05-26T13:07:13.363Z,2.90
2019-05-26T13:09:42.645Z,3.08
2019-05-26T13:12:11.930Z,3.10
2019-05-26T13:14:41.272Z,2.80
2019-05-26T13:17:10.523Z,2.95
2019-05-26T13:19:39.817Z,2.80
2019-05-26T13:22:09.173Z,2.70
2019-05-26T13:24:38.431Z,2.80
2019-05-26T13:27:07.722Z,3.10
2019-05-26T13:29:36.982Z,2.67
2019-05-26T13:32:06.471Z,3.22
2019-05-26T13:34:36.086Z,3.35
2019-05-26T13:37:05.741Z,3.13
2019-05-26T13:39:35.010Z,2.80
2019-05-26T13:42:04.426Z,3.00
2019-05-26T13:44:33.694Z,2.87
2019-05-26T13:47:02.978Z,3.00
2019-05-26T13:49:32.248Z,3.10
2019-05-26T13:52:01.502Z,3.10
2019-05-26T13:54:30.793Z,2.87
2019-05-26T13:57:00.080Z,2.80
2019-05-26T13:59:29.425Z,2.67
2019-05-26T14:01:58.690Z,2.90
2019-05-26T14:04:27.973Z,3.25
2019-05-26T14:06:57.266Z,3.15
2019-05-26T14:09:27.351Z,2.80
2019-05-26T14:11:56.830Z,2.75
2019-05-26T14:14:26.111Z,2.70
2019-05-26T14:16:56.173Z,3.08
2019-05-26T14:19:34.303Z,3.30
2019-05-26T14:22:03.650Z,3.17
2019-05-26T14:24:33.035Z,3.22
2019-05-26T14:27:02.293Z,2.80
2019-05-26T14:29:31.588Z,2.67
2019-05-26T14:32:00.877Z,2.90
2019-05-26T14:34:30.139Z,2.52
2019-05-26T14:36:59.421Z,2.98
2019-05-26T14:39:28.698Z,3.00
2019-05-26T14:41:57.974Z,2.60
2019-05-26T14:44:27.274Z,2.87
2019-05-26T14:46:56.603Z,3.00
2019-05-26T14:49:25.865Z,3.02
2019-05-26T14:51:55.197Z,3.10
2019-05-26T14:54:24.566Z,3.05
2019-05-26T14:56:53.885Z,2.98
2019-05-26T14:59:23.144Z,3.00
2019-05-26T15:01:52.402Z,3.10
2019-05-26T15:04:21.695Z,3.20
2019-05-26T15:06:51.012Z,3.05
2019-05-26T15:09:25.266Z,3.43
2019-05-26T15:11:51.266Z,3.30
2019-05-26T15:14:20.526Z,3.22
2019-05-26T15:16:49.800Z,3.70
2019-05-26T15:19:19.176Z,3.40
2019-05-26T15:21:48.501Z,3.20
2019-05-26T15:24:17.806Z,3.30
2019-05-26T15:26:47.141Z,3.62
2019-05-26T15:29:16.403Z,3.33
2019-05-26T15:31:45.706Z,3.47
2019-05-26T15:34:14.958Z,3.37
2019-05-26T15:36:44.233Z,3.40
2019-05-26T15:39:13.517Z,3.42
2019-05-26T15:41:42.793Z,3.50
2019-05-26T15:44:12.084Z,3.40
2019-05-26T15:46:41.341Z,3.40
2019-05-26T15:49:10.817Z,3.27
2019-05-26T15:51:40.209Z,3.07
2019-05-26T15:54:09.545Z,3.70
2019-05-26T15:56:38.830Z,3.53
2019-05-26T15:59:08.065Z,2.80
2019-05-26T16:01:37.334Z,3.43
2019-05-26T16:04:06.617Z,3.25
2019-05-26T16:06:35.944Z,3.97
2019-05-26T16:09:07.217Z,3.53
2019-05-26T16:11:36.495Z,3.58
2019-05-26T16:14:05.874Z,3.90
2019-05-26T16:16:41.430Z,4.30
2019-05-26T16:19:06.374Z,3.60
2019-05-26T16:21:35.630Z,3.10
2019-05-26T16:24:04.905Z,2.70
2019-05-26T16:26:34.173Z,2.70
2019-05-26T16:29:03.605Z,2.77
2019-05-26T16:31:32.911Z,2.70
2019-05-26T16:34:02.171Z,2.63
2019-05-26T16:36:31.429Z,2.50
2019-05-26T16:39:00.696Z,2.70
2019-05-26T16:41:29.954Z,2.70
2019-05-26T16:43:59.241Z,2.70
2019-05-26T16:46:28.490Z,2.70
2019-05-26T16:48:57.742Z,2.47
2019-05-26T16:51:27.015Z,2.60
2019-05-26T16:53:56.318Z,2.67
2019-05-26T16:56:25.582Z,2.60
2019-05-26T16:58:54.850Z,2.37
2019-05-26T17:01:24.123Z,2.60
2019-05-26T17:03:53.565Z,2.40
2019-05-26T17:06:22.897Z,2.50
2019-05-26T17:08:52.186Z,3.00
2019-05-26T17:11:21.446Z,2.50
2019-05-26T17:13:50.734Z,2.63
2019-05-26T17:16:20.062Z,2.53
2019-05-26T17:18:49.529Z,2.40
2019-05-26T17:21:18.854Z,2.20
2019-05-26T17:23:48.119Z,2.73
2019-05-26T17:26:17.381Z,2.90
2019-05-26T17:28:46.742Z,2.60
2019-05-26T17:31:15.994Z,2.50
2019-05-26T17:33:45.254Z,2.40
2019-05-26T17:36:14.515Z,2.80
2019-05-26T17:38:43.809Z,2.70
2019-05-26T17:41:13.104Z,2.47
2019-05-26T17:43:42.603Z,2.73
2019-05-26T17:46:15.026Z,2.40
2019-05-26T17:48:42.921Z,2.33
2019-05-26T17:51:12.198Z,2.90
2019-05-26T17:53:41.480Z,3.00
2019-05-26T17:56:10.765Z,2.80
2019-05-26T17:58:40.125Z,2.83
2019-05-26T18:01:09.397Z,2.70
2019-05-26T18:03:38.683Z,2.93
2019-05-26T18:06:08.168Z,2.83
2019-05-26T18:08:37.445Z,3.00
2019-05-26T18:11:06.736Z,3.00
2019-05-26T18:13:36.011Z,2.70
2019-05-26T18:16:05.382Z,3.20
2019-05-26T18:18:34.753Z,2.87
2019-05-26T18:21:04.030Z,2.83
2019-05-26T18:23:33.298Z,3.10
2019-05-26T18:26:02.568Z,3.37
2019-05-26T18:28:31.878Z,3.40
2019-05-26T18:31:01.263Z,2.93
2019-05-26T18:33:30.615Z,3.23
2019-05-26T18:35:59.894Z,3.40
2019-05-26T18:38:29.211Z,3.20
2019-05-26T18:40:58.479Z,3.20
2019-05-26T18:43:27.747Z,3.23
2019-05-26T18:45:57.027Z,3.10
2019-05-26T18:48:26.326Z,3.23
2019-05-26T18:50:55.607Z,3.10
2019-05-26T18:53:24.860Z,3.33
2019-05-26T18:55:54.237Z,3.27
2019-05-26T18:58:23.506Z,3.40
2019-05-26T19:00:52.766Z,3.30
2019-05-26T19:03:22.046Z,3.50
2019-05-26T19:05:51.334Z,3.47
2019-05-26T19:08:20.602Z,3.50
2019-05-26T19:10:50.062Z,3.57
2019-05-26T19:13:19.466Z,3.73
2019-05-26T19:15:48.823Z,3.93
2019-05-26T19:18:20.238Z,3.83
2019-05-26T19:20:49.221Z,3.50
2019-05-26T19:23:18.477Z,3.80
2019-05-26T19:25:48.045Z,3.77
2019-05-26T19:28:17.421Z,3.70
2019-05-26T19:30:46.943Z,3.90
2019-05-26T19:33:16.224Z,3.60
2019-05-26T19:35:45.701Z,4.03
2019-05-26T19:38:15.098Z,3.60
2019-05-26T19:40:44.521Z,3.80
2019-05-26T19:43:14.010Z,3.63
2019-05-26T19:45:45.806Z,3.97
2019-05-26T19:48:15.185Z,4.43
2019-05-26T19:50:44.501Z,4.53
2019-05-26T19:53:13.774Z,4.30
2019-05-26T19:55:43.042Z,4.20
2019-05-26T19:58:12.309Z,4.17
2019-05-26T20:00:41.514Z,4.13
2019-05-26T20:03:10.786Z,4.20
2019-05-26T20:05:40.046Z,3.83
2019-05-26T20:08:09.343Z,4.00
2019-05-26T20:10:38.598Z,3.77
2019-05-26T20:13:07.869Z,4.50
2019-05-26T20:15:37.169Z,4.63
2019-05-26T20:18:06.489Z,4.30
2019-05-26T20:20:35.748Z,5.27
2019-05-26T20:23:05.218Z,5.20
2019-05-26T20:25:34.477Z,5.47
2019-05-26T20:28:03.797Z,5.57
2019-05-26T20:30:33.238Z,5.23
2019-05-26T20:33:02.511Z,5.00
2019-05-26T20:35:31.837Z,5.30
2019-05-26T20:38:01.144Z,5.53
2019-05-26T20:40:30.423Z,5.33
2019-05-26T20:42:59.766Z,5.40
2019-05-26T20:45:29.066Z,5.40
2019-05-26T20:47:58.339Z,5.13
2019-05-26T20:50:29.596Z,5.10
2019-05-26T20:52:58.818Z,5.13
2019-05-26T20:55:28.495Z,5.50
2019-05-26T20:57:57.829Z,5.93
2019-05-26T21:00:27.121Z,5.53
2019-05-26T21:02:56.374Z,6.30
2019-05-26T21:05:25.675Z,5.63
2019-05-26T21:07:54.954Z,6.30
2019-05-26T21:10:24.376Z,6.13
2019-05-26T21:12:53.710Z,6.77
2019-05-26T21:15:22.978Z,6.43
2019-05-26T21:17:52.287Z,6.87
2019-05-26T21:20:22.297Z,6.27
2019-05-26T21:22:51.599Z,6.43
2019-05-26T21:25:20.804Z,6.33
2019-05-26T21:27:50.224Z,6.30
2019-05-26T21:30:20.049Z,6.20
2019-05-26T21:32:49.464Z,5.60
2019-05-26T21:35:18.759Z,5.53
2019-05-26T21:37:48.146Z,7.37
2019-05-26T21:40:17.608Z,6.07
2019-05-26T21:42:46.946Z,6.43
2019-05-26T21:45:16.501Z,6.67
2019-05-26T21:47:45.785Z,6.57
2019-05-26T21:50:16.487Z,6.30
2019-05-26T21:52:45.864Z,6.80
2019-05-26T21:55:16.097Z,6.43
2019-05-26T21:57:45.361Z,7.23
2019-05-26T22:00:18.913Z,7.43
2019-05-26T22:02:48.246Z,6.77
2019-05-26T22:05:17.752Z,7.83
2019-05-26T22:07:47.077Z,7.60
2019-05-26T22:10:16.755Z,7.57
2019-05-26T22:12:46.127Z,7.07
2019-05-26T22:15:15.470Z,7.90
2019-05-26T22:17:44.812Z,7.60
2019-05-26T22:20:14.390Z,7.50
2019-05-26T22:22:43.714Z,7.17
2019-05-26T22:25:13.079Z,7.80
2019-05-26T22:27:42.360Z,7.43
2019-05-26T22:30:11.939Z,7.13
2019-05-26T22:32:41.239Z,7.97
2019-05-26T22:35:10.592Z,7.67
2019-05-26T22:37:39.909Z,7.67
2019-05-26T22:40:10.514Z,7.30
2019-05-26T22:42:39.837Z,8.23
2019-05-26T22:45:10.805Z,7.53
2019-05-26T22:47:40.113Z,7.60
2019-05-26T22:50:10.672Z,7.70
2019-05-26T22:52:39.954Z,7.53
2019-05-26T22:55:09.925Z,7.33
2019-05-26T22:57:39.184Z,7.30
2019-05-26T23:00:09.862Z,8.07
2019-05-26T23:02:39.118Z,6.77
2019-05-26T23:05:08.319Z,6.53
2019-05-26T23:07:37.668Z,6.23
2019-05-26T23:10:07.590Z,7.00
2019-05-26T23:12:36.908Z,6.73
2019-05-26T23:15:07.828Z,6.73
2019-05-26T23:17:37.095Z,7.33
2019-05-26T23:20:07.705Z,6.53
2019-05-26T23:22:37.013Z,6.47
2019-05-26T23:25:07.577Z,6.57
2019-05-26T23:27:36.853Z,6.93
2019-05-26T23:30:07.181Z,6.33
2019-05-26T23:32:36.447Z,7.20
2019-05-26T23:35:06.231Z,6.50
2019-05-26T23:37:35.649Z,6.50
2019-05-26T23:40:06.115Z,6.67
2019-05-26T23:42:35.571Z,6.80
2019-05-26T23:45:05.086Z,7.20
2019-05-26T23:47:34.377Z,7.03
2019-05-26T23:50:03.681Z,6.60
2019-05-26T23:52:32.980Z,7.47
2019-05-26T23:55:02.358Z,7.50
2019-05-26T23:57:31.565Z,7.70
